createdAt,value
2018-08-08T00:00:16.257Z,1.90
2018-08-08T00:01:16.262Z,2.00
2018-08-08T00:02:16.263Z,2.00
2018-08-08T00:03:16.267Z,2.30
2018-08-08T00:04:16.273Z,2.20
2018-08-08T00:05:16.279Z,2.10
2018-08-08T00:06:16.284Z,2.10
2018-08-08T00:07:16.290Z,2.00
2018-08-08T00:08:16.297Z,2.00
2018-08-08T00:09:16.298Z,2.20
2018-08-08T00:10:16.308Z,2.10
2018-08-08T00:11:16.312Z,2.10
2018-08-08T00:12:16.313Z,2.20
2018-08-08T00:13:16.321Z,2.10
2018-08-08T00:14:16.325Z,2.10
2018-08-08T00:15:16.330Z,2.10
2018-08-08T00:16:16.345Z,2.00
2018-08-08T00:17:16.340Z,2.00
2018-08-08T00:18:16.347Z,2.00
2018-08-08T00:19:16.350Z,2.10
2018-08-08T00:20:16.353Z,2.10
2018-08-08T00:21:16.359Z,2.10
2018-08-08T00:22:16.364Z,2.10
2018-08-08T00:23:16.373Z,2.30
2018-08-08T00:24:16.398Z,2.00
2018-08-08T00:25:18.989Z,1.90
2018-08-08T00:26:16.387Z,2.40
2018-08-08T00:27:16.497Z,2.00
2018-08-08T00:28:16.393Z,1.90
2018-08-08T00:29:16.400Z,1.90
2018-08-08T00:30:16.446Z,2.10
2018-08-08T00:31:16.417Z,2.20
2018-08-08T00:32:16.545Z,2.00
2018-08-08T00:33:16.418Z,2.00
2018-08-08T00:34:16.477Z,1.90
2018-08-08T00:35:16.455Z,2.00
2018-08-08T00:36:16.691Z,1.80
2018-08-08T00:37:16.439Z,2.00
2018-08-08T00:38:16.443Z,1.90
2018-08-08T00:39:16.519Z,2.00
2018-08-08T00:40:16.491Z,2.00
2018-08-08T00:41:16.461Z,2.00
2018-08-08T00:42:16.461Z,2.20
2018-08-08T00:43:16.468Z,2.00
2018-08-08T00:44:16.473Z,2.10
2018-08-08T00:45:16.475Z,2.10
2018-08-08T00:46:16.482Z,2.30
2018-08-08T00:47:16.487Z,2.20
2018-08-08T00:48:16.493Z,2.40
2018-08-08T00:49:16.498Z,2.20
2018-08-08T00:50:16.500Z,2.30
2018-08-08T00:51:16.506Z,2.30
2018-08-08T00:52:16.509Z,2.20
2018-08-08T00:53:16.514Z,2.20
2018-08-08T00:54:16.521Z,2.00
2018-08-08T00:55:16.547Z,2.30
2018-08-08T00:56:16.529Z,2.20
2018-08-08T00:57:16.532Z,2.10
2018-08-08T00:58:16.537Z,2.00
2018-08-08T00:59:16.542Z,2.00
2018-08-08T01:00:16.548Z,2.10
2018-08-08T01:01:16.549Z,2.40
2018-08-08T01:02:16.554Z,2.10
2018-08-08T01:03:16.559Z,2.10
2018-08-08T01:04:16.565Z,1.90
2018-08-08T01:05:16.570Z,2.20
2018-08-08T01:06:16.577Z,2.00
2018-08-08T01:07:16.579Z,1.90
2018-08-08T01:08:16.648Z,2.10
2018-08-08T01:09:16.587Z,2.00
2018-08-08T01:10:16.595Z,2.00
2018-08-08T01:11:16.597Z,2.30
2018-08-08T01:12:16.601Z,2.20
2018-08-08T01:13:16.606Z,2.10
2018-08-08T01:14:16.615Z,2.10
2018-08-08T01:15:16.616Z,2.20
2018-08-08T01:16:16.620Z,2.10
2018-08-08T01:17:16.622Z,2.40
2018-08-08T01:18:16.629Z,2.10
2018-08-08T01:19:16.634Z,2.10
2018-08-08T01:20:16.640Z,2.20
2018-08-08T01:21:16.646Z,2.20
2018-08-08T01:22:16.646Z,2.40
2018-08-08T01:23:16.652Z,2.40
2018-08-08T01:24:16.655Z,2.10
2018-08-08T01:25:16.660Z,2.10
2018-08-08T01:26:16.664Z,2.30
2018-08-08T01:27:16.669Z,2.20
2018-08-08T01:28:16.674Z,2.20
2018-08-08T01:29:16.678Z,2.30
2018-08-08T01:30:16.682Z,2.30
2018-08-08T01:31:16.689Z,2.20
2018-08-08T01:32:16.690Z,2.30
2018-08-08T01:33:16.697Z,2.30
2018-08-08T01:34:16.700Z,2.20
2018-08-08T01:35:16.707Z,2.40
2018-08-08T01:36:16.714Z,2.30
2018-08-08T01:37:16.718Z,2.30
2018-08-08T01:38:16.719Z,2.20
2018-08-08T01:39:16.722Z,2.20
2018-08-08T01:40:16.726Z,2.30
2018-08-08T01:41:16.734Z,2.30
2018-08-08T01:42:16.742Z,2.30
2018-08-08T01:43:16.742Z,2.20
2018-08-08T01:44:16.747Z,2.40
2018-08-08T01:45:16.751Z,2.20
2018-08-08T01:46:16.758Z,2.40
2018-08-08T01:47:16.761Z,2.30
2018-08-08T01:48:16.764Z,2.20
2018-08-08T01:49:16.768Z,2.30
2018-08-08T01:50:16.773Z,2.30
2018-08-08T01:51:16.778Z,2.30
2018-08-08T01:52:16.780Z,2.40
2018-08-08T01:53:16.789Z,2.60
2018-08-08T01:54:16.790Z,2.40
2018-08-08T01:55:16.796Z,2.40
2018-08-08T01:56:16.800Z,2.20
2018-08-08T01:57:16.809Z,2.20
2018-08-08T01:58:16.807Z,2.60
2018-08-08T01:59:16.814Z,2.40
2018-08-08T02:00:16.821Z,2.30
2018-08-08T02:01:16.821Z,2.40
2018-08-08T02:02:16.822Z,2.30
2018-08-08T02:03:16.829Z,2.30
2018-08-08T02:04:16.833Z,2.20
2018-08-08T02:05:16.849Z,2.50
2018-08-08T02:06:16.841Z,2.60
2018-08-08T02:07:16.846Z,2.50
2018-08-08T02:08:16.852Z,2.30
2018-08-08T02:09:16.855Z,2.50
2018-08-08T02:10:16.860Z,2.40
2018-08-08T02:11:16.862Z,2.20
2018-08-08T02:12:16.867Z,2.50
2018-08-08T02:13:16.874Z,2.30
2018-08-08T02:14:16.876Z,2.40
2018-08-08T02:15:16.881Z,2.40
2018-08-08T02:16:16.887Z,2.50
2018-08-08T02:17:16.887Z,2.10
2018-08-08T02:18:16.896Z,2.50
2018-08-08T02:19:16.898Z,2.30
2018-08-08T02:20:16.903Z,2.40
2018-08-08T02:21:16.913Z,2.20
2018-08-08T02:22:16.911Z,2.20
2018-08-08T02:23:16.915Z,2.30
2018-08-08T02:24:16.919Z,2.40
2018-08-08T02:25:16.924Z,2.40
2018-08-08T02:26:16.929Z,2.30
2018-08-08T02:27:16.928Z,2.30
2018-08-08T02:28:16.936Z,2.30
2018-08-08T02:29:16.940Z,2.20
2018-08-08T02:30:16.946Z,2.10
2018-08-08T02:31:16.951Z,2.40
2018-08-08T02:32:16.959Z,2.40
2018-08-08T02:33:16.963Z,2.30
2018-08-08T02:34:16.967Z,2.20
2018-08-08T02:35:16.977Z,2.40
2018-08-08T02:36:16.973Z,2.20
2018-08-08T02:37:17.010Z,2.10
2018-08-08T02:38:16.987Z,2.40
2018-08-08T02:39:16.984Z,2.30
2018-08-08T02:40:16.990Z,2.40
2018-08-08T02:41:16.995Z,2.30
2018-08-08T02:42:17.011Z,2.30
2018-08-08T02:43:17.018Z,2.30
2018-08-08T02:44:17.006Z,2.40
2018-08-08T02:45:17.013Z,2.20
2018-08-08T02:46:17.017Z,2.20
2018-08-08T02:47:17.021Z,2.30
2018-08-08T02:48:17.023Z,2.50
2018-08-08T02:49:17.029Z,2.10
2018-08-08T02:50:17.033Z,2.40
2018-08-08T02:51:17.037Z,2.20
2018-08-08T02:52:17.040Z,2.20
2018-08-08T02:53:17.045Z,2.20
2018-08-08T02:54:17.050Z,2.30
2018-08-08T02:55:17.059Z,2.20
2018-08-08T02:56:17.056Z,2.30
2018-08-08T02:57:17.067Z,2.30
2018-08-08T02:58:17.068Z,2.50
2018-08-08T02:59:17.075Z,2.30
2018-08-08T03:00:17.083Z,2.10
2018-08-08T03:01:17.080Z,2.30
2018-08-08T03:02:17.083Z,2.30
2018-08-08T03:03:17.093Z,2.20
2018-08-08T03:04:17.093Z,2.30
2018-08-08T03:05:17.101Z,2.20
2018-08-08T03:06:17.103Z,2.30
2018-08-08T03:07:17.107Z,2.40
2018-08-08T03:08:17.143Z,2.30
2018-08-08T03:09:17.116Z,2.20
2018-08-08T03:10:17.118Z,2.30
2018-08-08T03:11:17.123Z,2.30
2018-08-08T03:12:17.130Z,2.40
2018-08-08T03:13:17.130Z,2.50
2018-08-08T03:14:17.135Z,2.50
2018-08-08T03:15:17.144Z,2.30
2018-08-08T03:16:17.142Z,2.50
2018-08-08T03:17:17.148Z,2.20
2018-08-08T03:18:17.191Z,2.20
2018-08-08T03:19:17.158Z,2.20
2018-08-08T03:20:17.157Z,2.30
2018-08-08T03:21:17.164Z,2.40
2018-08-08T03:22:17.168Z,2.20
2018-08-08T03:23:17.173Z,2.40
2018-08-08T03:24:17.173Z,2.30
2018-08-08T03:25:17.186Z,2.50
2018-08-08T03:26:17.219Z,2.60
2018-08-08T03:27:17.196Z,2.40
2018-08-08T03:28:17.195Z,2.50
2018-08-08T03:29:17.205Z,2.40
2018-08-08T03:30:17.201Z,2.40
2018-08-08T03:31:17.212Z,2.40
2018-08-08T03:32:17.212Z,2.40
2018-08-08T03:33:17.221Z,2.40
2018-08-08T03:34:17.220Z,2.50
2018-08-08T03:35:17.226Z,2.50
2018-08-08T03:36:17.234Z,2.30
2018-08-08T03:37:17.237Z,2.40
2018-08-08T03:38:17.245Z,2.30
2018-08-08T03:39:17.240Z,2.30
2018-08-08T03:40:17.240Z,2.50
2018-08-08T03:41:17.249Z,2.40
2018-08-08T03:42:17.289Z,2.20
2018-08-08T03:43:17.266Z,2.40
2018-08-08T03:44:17.266Z,2.60
2018-08-08T03:45:17.266Z,2.50
2018-08-08T03:46:17.281Z,2.30
2018-08-08T03:47:17.273Z,2.70
2018-08-08T03:48:17.275Z,2.60
2018-08-08T03:49:18.952Z,2.50
2018-08-08T03:50:17.288Z,2.70
2018-08-08T03:51:19.947Z,2.60
2018-08-08T03:52:17.301Z,2.60
2018-08-08T03:53:17.361Z,2.60
2018-08-08T03:54:17.303Z,2.60
2018-08-08T03:55:17.307Z,2.40
2018-08-08T03:56:17.311Z,2.40
2018-08-08T03:57:17.311Z,2.40
2018-08-08T03:58:17.316Z,2.50
2018-08-08T03:59:17.319Z,2.50
2018-08-08T04:00:17.328Z,2.40
2018-08-08T04:01:17.330Z,2.40
2018-08-08T04:02:17.354Z,2.60
2018-08-08T04:03:17.341Z,2.50
2018-08-08T04:04:17.341Z,2.50
2018-08-08T04:05:17.355Z,2.40
2018-08-08T04:06:17.352Z,2.60
2018-08-08T04:07:17.353Z,2.70
2018-08-08T04:08:17.357Z,2.60
2018-08-08T04:09:17.382Z,2.50
2018-08-08T04:10:17.377Z,2.60
2018-08-08T04:11:17.374Z,2.50
2018-08-08T04:12:17.887Z,2.50
2018-08-08T04:13:17.383Z,2.50
2018-08-08T04:14:17.391Z,2.40
2018-08-08T04:15:17.888Z,2.40
2018-08-08T04:16:17.397Z,2.50
2018-08-08T04:17:17.461Z,2.60
2018-08-08T04:18:17.396Z,2.50
2018-08-08T04:19:17.399Z,2.60
2018-08-08T04:20:17.425Z,2.60
2018-08-08T04:21:17.408Z,2.60
2018-08-08T04:22:18.967Z,2.60
2018-08-08T04:23:17.429Z,2.60
2018-08-08T04:24:17.441Z,2.60
2018-08-08T04:25:17.429Z,2.50
2018-08-08T04:26:17.435Z,3.00
2018-08-08T04:27:17.439Z,2.60
2018-08-08T04:28:17.439Z,2.70
2018-08-08T04:29:17.449Z,2.60
2018-08-08T04:30:17.445Z,2.80
2018-08-08T04:31:17.972Z,2.60
2018-08-08T04:32:17.549Z,2.50
2018-08-08T04:33:17.465Z,2.40
2018-08-08T04:34:17.466Z,2.60
2018-08-08T04:35:17.470Z,2.50
2018-08-08T04:36:17.471Z,2.60
2018-08-08T04:37:17.475Z,2.70
2018-08-08T04:38:17.481Z,2.70
2018-08-08T04:39:17.484Z,2.40
2018-08-08T04:40:17.496Z,2.60
2018-08-08T04:41:17.496Z,2.60
2018-08-08T04:42:17.507Z,2.70
2018-08-08T04:43:17.504Z,2.50
2018-08-08T04:44:17.506Z,2.60
2018-08-08T04:45:17.509Z,2.50
2018-08-08T04:46:17.512Z,2.60
2018-08-08T04:47:17.517Z,2.70
2018-08-08T04:48:17.523Z,2.90
2018-08-08T04:49:17.528Z,2.80
2018-08-08T04:50:17.610Z,2.50
2018-08-08T04:51:17.565Z,2.70
2018-08-08T04:52:17.547Z,2.90
2018-08-08T04:53:17.547Z,2.70
2018-08-08T04:54:17.559Z,2.80
2018-08-08T04:55:17.556Z,2.60
2018-08-08T04:56:17.584Z,2.90
2018-08-08T04:57:17.625Z,2.90
2018-08-08T04:58:17.576Z,3.20
2018-08-08T04:59:17.575Z,3.10
2018-08-08T05:00:17.699Z,2.90
2018-08-08T05:01:17.583Z,2.80
2018-08-08T05:02:17.612Z,2.70
2018-08-08T05:03:17.598Z,3.00
2018-08-08T05:04:17.600Z,2.50
2018-08-08T05:05:17.610Z,2.80
2018-08-08T05:06:17.631Z,2.90
2018-08-08T05:07:17.619Z,3.00
2018-08-08T05:08:17.625Z,3.20
2018-08-08T05:09:17.623Z,3.10
2018-08-08T05:10:17.628Z,2.90
2018-08-08T05:11:17.634Z,3.10
2018-08-08T05:12:17.645Z,2.70
2018-08-08T05:13:17.647Z,2.90
2018-08-08T05:14:17.657Z,3.00
2018-08-08T05:15:17.652Z,2.90
2018-08-08T05:16:17.668Z,3.10
2018-08-08T05:17:17.663Z,2.70
2018-08-08T05:18:17.666Z,3.20
2018-08-08T05:19:17.672Z,3.10
2018-08-08T05:20:17.772Z,2.80
2018-08-08T05:21:17.678Z,2.90
2018-08-08T05:22:17.691Z,2.80
2018-08-08T05:23:17.695Z,2.90
2018-08-08T05:24:17.695Z,2.70
2018-08-08T05:25:17.710Z,2.80
2018-08-08T05:26:17.704Z,2.70
2018-08-08T05:27:17.718Z,3.20
2018-08-08T05:28:17.721Z,3.30
2018-08-08T05:29:17.733Z,3.40
2018-08-08T05:30:17.736Z,3.30
2018-08-08T05:31:17.740Z,3.10
2018-08-08T05:32:17.749Z,3.00
2018-08-08T05:33:17.747Z,3.10
2018-08-08T05:34:17.754Z,3.10
2018-08-08T05:35:17.758Z,2.80
2018-08-08T05:36:17.784Z,3.00
2018-08-08T05:37:17.771Z,2.90
2018-08-08T05:38:17.777Z,3.00
2018-08-08T05:39:17.786Z,3.50
2018-08-08T05:40:17.790Z,3.30
2018-08-08T05:41:17.795Z,3.70
2018-08-08T05:42:17.805Z,3.30
2018-08-08T05:43:17.809Z,3.60
2018-08-08T05:44:17.819Z,3.50
2018-08-08T05:45:17.823Z,3.20
2018-08-08T05:46:17.833Z,3.30
2018-08-08T05:47:17.834Z,3.70
2018-08-08T05:48:17.845Z,3.50
2018-08-08T05:49:17.877Z,2.90
2018-08-08T05:50:17.853Z,3.40
2018-08-08T05:51:17.873Z,3.00
2018-08-08T05:52:17.866Z,3.30
2018-08-08T05:53:17.880Z,3.80
2018-08-08T05:54:17.881Z,3.70
2018-08-08T05:55:17.891Z,3.10
2018-08-08T05:56:17.892Z,3.30
2018-08-08T05:57:17.902Z,3.00
2018-08-08T05:58:17.911Z,3.10
2018-08-08T05:59:17.912Z,3.50
2018-08-08T06:00:17.926Z,3.80
2018-08-08T06:01:17.930Z,4.40
2018-08-08T06:02:17.940Z,3.70
2018-08-08T06:03:17.975Z,3.30
2018-08-08T06:04:17.951Z,3.30
2018-08-08T06:05:17.958Z,3.70
2018-08-08T06:06:17.966Z,3.60
2018-08-08T06:07:17.974Z,3.40
2018-08-08T06:08:17.978Z,3.40
2018-08-08T06:09:17.987Z,3.40
2018-08-08T06:10:17.994Z,3.50
2018-08-08T06:11:18.003Z,3.30
2018-08-08T06:12:18.014Z,3.40
2018-08-08T06:13:18.016Z,3.10
2018-08-08T06:14:18.052Z,3.50
2018-08-08T06:15:18.031Z,3.50
2018-08-08T06:16:18.039Z,3.60
2018-08-08T06:17:18.095Z,3.20
2018-08-08T06:18:18.110Z,3.10
2018-08-08T06:19:18.063Z,3.10
2018-08-08T06:20:18.065Z,3.10
2018-08-08T06:21:18.071Z,3.30
2018-08-08T06:22:18.087Z,3.10
2018-08-08T06:23:18.094Z,3.10
2018-08-08T06:24:18.101Z,3.50
2018-08-08T06:25:18.110Z,3.30
2018-08-08T06:26:18.115Z,3.60
2018-08-08T06:27:18.169Z,3.40
2018-08-08T06:28:18.130Z,3.30
2018-08-08T06:29:18.140Z,3.20
2018-08-08T06:30:18.146Z,3.40
2018-08-08T06:31:18.155Z,3.30
2018-08-08T06:32:18.169Z,3.30
2018-08-08T06:33:18.169Z,3.50
2018-08-08T06:34:18.177Z,3.50
2018-08-08T06:35:18.187Z,3.40
2018-08-08T06:36:18.195Z,3.30
2018-08-08T06:37:18.204Z,3.10
2018-08-08T06:38:18.208Z,3.20
2018-08-08T06:39:18.221Z,3.10
2018-08-08T06:40:18.266Z,3.10
2018-08-08T06:41:18.243Z,3.10
2018-08-08T06:42:18.250Z,3.10
2018-08-08T06:43:18.256Z,3.20
2018-08-08T06:44:18.262Z,3.00
2018-08-08T06:45:18.274Z,3.20
2018-08-08T06:46:18.276Z,3.40
2018-08-08T06:47:18.409Z,3.50
2018-08-08T06:48:18.296Z,3.20
2018-08-08T06:49:18.308Z,3.50
2018-08-08T06:50:18.317Z,3.40
2018-08-08T06:51:18.323Z,3.50
2018-08-08T06:52:18.335Z,3.50
2018-08-08T06:53:18.337Z,3.50
2018-08-08T06:54:18.348Z,3.20
2018-08-08T06:55:18.356Z,3.10
2018-08-08T06:56:18.366Z,3.40
2018-08-08T06:57:18.364Z,3.30
2018-08-08T06:58:18.386Z,3.20
2018-08-08T06:59:18.390Z,3.30
2018-08-08T07:00:18.397Z,3.20
2018-08-08T07:01:18.406Z,3.40
2018-08-08T07:02:18.418Z,3.10
2018-08-08T07:03:18.422Z,3.40
2018-08-08T07:04:18.434Z,3.50
2018-08-08T07:05:18.443Z,3.50
2018-08-08T07:06:18.456Z,3.20
2018-08-08T07:07:18.458Z,3.30
2018-08-08T07:08:18.471Z,3.30
2018-08-08T07:09:18.634Z,3.30
2018-08-08T07:10:18.496Z,3.50
2018-08-08T07:11:18.503Z,3.30
2018-08-08T07:12:18.536Z,3.10
2018-08-08T07:13:18.724Z,3.40
2018-08-08T07:14:18.538Z,3.40
2018-08-08T07:15:18.537Z,3.30
2018-08-08T07:16:18.600Z,3.10
2018-08-08T07:17:18.560Z,3.20
2018-08-08T07:18:18.600Z,3.50
2018-08-08T07:19:18.660Z,3.40
2018-08-08T07:20:18.666Z,3.30
2018-08-08T07:21:18.597Z,3.10
2018-08-08T07:22:18.611Z,3.10
2018-08-08T07:23:18.620Z,3.20
2018-08-08T07:24:18.636Z,3.40
2018-08-08T07:25:18.690Z,3.30
2018-08-08T07:26:18.651Z,3.00
2018-08-08T07:27:18.665Z,3.20
2018-08-08T07:28:18.721Z,3.20
2018-08-08T07:29:18.683Z,3.20
2018-08-08T07:30:18.704Z,3.20
2018-08-08T07:31:18.709Z,3.10
2018-08-08T07:32:18.719Z,3.10
2018-08-08T07:33:18.727Z,3.10
2018-08-08T07:34:18.737Z,3.20
2018-08-08T07:35:18.748Z,3.30
2018-08-08T07:36:18.759Z,3.10
2018-08-08T07:37:18.788Z,3.20
2018-08-08T07:38:18.785Z,3.30
2018-08-08T07:39:18.799Z,2.90
2018-08-08T07:40:18.813Z,3.30
2018-08-08T07:41:18.821Z,3.30
2018-08-08T07:42:18.824Z,3.30
2018-08-08T07:43:18.845Z,3.50
2018-08-08T07:44:18.848Z,3.40
2018-08-08T07:45:18.881Z,3.00
2018-08-08T07:46:18.936Z,2.90
2018-08-08T07:47:18.884Z,3.20
2018-08-08T07:48:18.899Z,3.30
2018-08-08T07:49:18.906Z,3.10
2018-08-08T07:50:18.922Z,3.10
2018-08-08T07:51:18.932Z,3.00
2018-08-08T07:52:18.940Z,3.20
2018-08-08T07:53:18.962Z,3.50
2018-08-08T07:54:19.084Z,3.00
2018-08-08T07:55:18.980Z,3.10
2018-08-08T07:56:19.052Z,3.40
2018-08-08T07:57:19.045Z,3.00
2018-08-08T07:58:19.091Z,3.30
2018-08-08T07:59:19.154Z,3.20
2018-08-08T08:00:19.038Z,3.30
2018-08-08T08:01:19.052Z,3.30
2018-08-08T08:02:19.117Z,3.10
2018-08-08T08:03:19.076Z,3.30
2018-08-08T08:04:19.089Z,3.20
2018-08-08T08:05:19.105Z,3.30
2018-08-08T08:06:19.113Z,3.30
2018-08-08T08:07:19.125Z,3.00
2018-08-08T08:08:19.138Z,3.20
2018-08-08T08:09:19.151Z,3.20
2018-08-08T08:10:19.163Z,3.20
2018-08-08T08:11:19.178Z,3.30
2018-08-08T08:12:19.190Z,2.80
2018-08-08T08:13:19.203Z,3.10
2018-08-08T08:14:19.215Z,3.20
2018-08-08T08:15:19.266Z,3.10
2018-08-08T08:16:19.241Z,3.10
2018-08-08T08:17:20.197Z,3.00
2018-08-08T08:18:19.338Z,3.10
2018-08-08T08:19:19.281Z,3.40
2018-08-08T08:20:19.292Z,3.10
2018-08-08T08:21:19.308Z,3.20
2018-08-08T08:22:19.326Z,3.20
2018-08-08T08:23:19.445Z,3.50
2018-08-08T08:24:19.347Z,3.30
2018-08-08T08:25:19.363Z,3.40
2018-08-08T08:26:19.372Z,3.20
2018-08-08T08:27:19.387Z,3.50
2018-08-08T08:28:19.403Z,3.50
2018-08-08T08:29:19.414Z,3.30
2018-08-08T08:30:19.431Z,3.30
2018-08-08T08:31:19.669Z,3.30
2018-08-08T08:32:19.711Z,3.20
2018-08-08T08:33:19.550Z,3.10
2018-08-08T08:34:19.487Z,3.00
2018-08-08T08:35:19.501Z,3.20
2018-08-08T08:36:19.518Z,3.10
2018-08-08T08:37:19.537Z,3.10
2018-08-08T08:38:19.545Z,3.20
2018-08-08T08:39:19.559Z,3.10
2018-08-08T08:40:19.570Z,3.00
2018-08-08T08:41:19.590Z,3.20
2018-08-08T08:42:19.599Z,3.00
2018-08-08T08:43:19.607Z,3.40
2018-08-08T08:44:19.623Z,3.30
2018-08-08T08:45:19.637Z,3.10
2018-08-08T08:46:19.653Z,3.10
2018-08-08T08:47:19.668Z,3.10
2018-08-08T08:48:19.680Z,3.30
2018-08-08T08:49:19.694Z,3.10
2018-08-08T08:50:19.780Z,3.30
2018-08-08T08:51:19.723Z,3.20
2018-08-08T08:52:19.738Z,3.30
2018-08-08T08:53:19.750Z,3.20
2018-08-08T08:54:19.764Z,3.10
2018-08-08T08:55:20.025Z,3.40
2018-08-08T08:56:19.791Z,3.30
2018-08-08T08:57:19.803Z,3.40
2018-08-08T08:58:19.820Z,3.60
2018-08-08T08:59:19.836Z,3.50
2018-08-08T09:00:19.845Z,3.70
2018-08-08T09:01:19.859Z,3.30
2018-08-08T09:02:19.910Z,3.60
2018-08-08T09:03:19.884Z,3.70
2018-08-08T09:04:19.913Z,3.50
2018-08-08T09:05:19.909Z,3.40
2018-08-08T09:06:19.922Z,3.60
2018-08-08T09:07:19.992Z,3.70
2018-08-08T09:08:19.946Z,3.30
2018-08-08T09:09:19.959Z,3.70
2018-08-08T09:10:19.975Z,3.50
2018-08-08T09:11:19.985Z,3.50
2018-08-08T09:12:20.046Z,3.70
2018-08-08T09:13:20.072Z,3.70
2018-08-08T09:14:20.019Z,3.70
2018-08-08T09:15:20.032Z,3.50
2018-08-08T09:16:20.104Z,3.20
2018-08-08T09:17:20.053Z,3.40
2018-08-08T09:18:20.072Z,3.60
2018-08-08T09:19:20.078Z,3.40
2018-08-08T09:20:20.087Z,3.40
2018-08-08T09:21:20.112Z,3.70
2018-08-08T09:22:20.110Z,3.40
2018-08-08T09:23:20.122Z,3.60
2018-08-08T09:24:20.187Z,3.70
2018-08-08T09:25:20.146Z,3.80
2018-08-08T09:26:20.151Z,3.90
2018-08-08T09:27:20.163Z,3.60
2018-08-08T09:28:20.173Z,3.60
2018-08-08T09:29:20.181Z,3.60
2018-08-08T09:30:20.251Z,3.60
2018-08-08T09:31:20.215Z,3.60
2018-08-08T09:32:20.211Z,3.90
2018-08-08T09:33:20.221Z,3.70
2018-08-08T09:34:20.273Z,3.80
2018-08-08T09:35:20.253Z,3.80
2018-08-08T09:36:20.251Z,4.00
2018-08-08T09:37:20.259Z,4.20
2018-08-08T09:38:20.270Z,4.00
2018-08-08T09:39:20.280Z,3.80
2018-08-08T09:40:20.392Z,4.10
2018-08-08T09:41:20.300Z,4.00
2018-08-08T09:42:20.309Z,4.20
2018-08-08T09:43:20.317Z,4.00
2018-08-08T09:44:20.398Z,3.90
2018-08-08T09:45:20.346Z,4.20
2018-08-08T09:46:20.347Z,4.30
2018-08-08T09:47:20.354Z,3.90
2018-08-08T09:48:20.364Z,4.20
2018-08-08T09:49:20.372Z,4.40
2018-08-08T09:50:20.383Z,4.10
2018-08-08T09:51:20.392Z,4.10
2018-08-08T09:52:20.401Z,4.00
2018-08-08T09:53:20.413Z,4.10
2018-08-08T09:54:20.422Z,4.00
2018-08-08T09:55:20.432Z,4.20
2018-08-08T09:56:20.448Z,4.20
2018-08-08T09:57:20.445Z,4.10
2018-08-08T09:58:20.455Z,4.20
2018-08-08T09:59:20.466Z,4.20
2018-08-08T10:00:20.473Z,4.40
2018-08-08T10:01:20.486Z,4.40
2018-08-08T10:02:20.491Z,4.20
2018-08-08T10:03:20.550Z,4.30
2018-08-08T10:04:20.514Z,4.10
2018-08-08T10:05:20.519Z,4.10
2018-08-08T10:06:20.528Z,4.00
2018-08-08T10:07:20.541Z,4.10
2018-08-08T10:08:20.546Z,3.70
2018-08-08T10:09:20.553Z,4.00
2018-08-08T10:10:20.564Z,4.10
2018-08-08T10:11:20.574Z,4.20
2018-08-08T10:12:20.581Z,4.20
2018-08-08T10:13:20.590Z,4.20
2018-08-08T10:14:20.598Z,3.80
2018-08-08T10:15:20.605Z,4.00
2018-08-08T10:16:20.616Z,4.00
2018-08-08T10:17:20.629Z,4.00
2018-08-08T10:18:20.638Z,4.00
2018-08-08T10:19:20.644Z,4.10
2018-08-08T10:20:20.651Z,4.00
2018-08-08T10:21:20.662Z,3.90
2018-08-08T10:22:20.671Z,3.70
2018-08-08T10:23:20.683Z,4.00
2018-08-08T10:24:20.695Z,3.70
2018-08-08T10:25:20.704Z,3.90
2018-08-08T10:26:20.708Z,4.00
2018-08-08T10:27:20.714Z,3.90
2018-08-08T10:28:20.729Z,4.10
2018-08-08T10:29:20.735Z,4.10
2018-08-08T10:30:20.742Z,3.80
2018-08-08T10:31:20.752Z,4.10
2018-08-08T10:32:20.761Z,4.00
2018-08-08T10:33:20.771Z,4.10
2018-08-08T10:34:20.779Z,4.20
2018-08-08T10:35:20.789Z,4.20
2018-08-08T10:36:20.799Z,3.80
2018-08-08T10:37:20.806Z,3.90
2018-08-08T10:38:20.814Z,3.80
2018-08-08T10:39:20.824Z,3.90
2018-08-08T10:40:20.837Z,3.60
2018-08-08T10:41:20.842Z,3.70
2018-08-08T10:42:20.851Z,3.90
2018-08-08T10:43:20.864Z,3.80
2018-08-08T10:44:20.869Z,3.90
2018-08-08T10:45:20.878Z,3.60
2018-08-08T10:46:20.885Z,3.90
2018-08-08T10:47:20.898Z,3.80
2018-08-08T10:48:20.903Z,3.90
2018-08-08T10:49:20.914Z,3.70
2018-08-08T10:50:20.924Z,3.60
2018-08-08T10:51:20.932Z,3.80
2018-08-08T10:52:20.940Z,3.70
2018-08-08T10:53:20.952Z,3.60
2018-08-08T10:54:20.958Z,3.80
2018-08-08T10:55:20.989Z,3.70
2018-08-08T10:56:21.016Z,3.40
2018-08-08T10:57:20.985Z,3.40
2018-08-08T10:58:20.998Z,3.40
2018-08-08T10:59:21.005Z,3.40
2018-08-08T11:00:21.014Z,3.30
2018-08-08T11:01:21.022Z,3.40
2018-08-08T11:02:21.032Z,3.30
2018-08-08T11:03:21.044Z,3.40
2018-08-08T11:04:21.054Z,3.20
2018-08-08T11:05:21.060Z,3.30
2018-08-08T11:06:21.072Z,3.00
2018-08-08T11:07:21.080Z,3.20
2018-08-08T11:08:21.089Z,3.20
2018-08-08T11:09:21.104Z,3.20
2018-08-08T11:10:21.108Z,3.10
2018-08-08T11:11:21.115Z,2.80
2018-08-08T11:12:21.125Z,2.90
2018-08-08T11:13:21.135Z,2.80
2018-08-08T11:14:21.147Z,3.00
2018-08-08T11:15:21.152Z,2.90
2018-08-08T11:16:21.169Z,2.70
2018-08-08T11:17:21.178Z,2.70
2018-08-08T11:18:21.181Z,2.60
2018-08-08T11:19:21.189Z,2.50
2018-08-08T11:20:21.197Z,2.60
2018-08-08T11:21:21.214Z,2.60
2018-08-08T11:22:21.224Z,2.50
2018-08-08T11:23:21.231Z,2.50
2018-08-08T11:24:21.236Z,2.60
2018-08-08T11:25:21.249Z,2.60
2018-08-08T11:26:21.258Z,2.60
2018-08-08T11:27:21.265Z,2.60
2018-08-08T11:28:21.278Z,2.60
2018-08-08T11:29:21.285Z,2.70
2018-08-08T11:30:21.311Z,2.50
2018-08-08T11:31:21.303Z,2.40
2018-08-08T11:32:21.319Z,2.60
2018-08-08T11:33:21.325Z,2.70
2018-08-08T11:34:21.336Z,2.40
2018-08-08T11:35:21.343Z,2.70
2018-08-08T11:36:21.349Z,2.70
2018-08-08T11:37:21.360Z,2.70
2018-08-08T11:38:21.371Z,2.60
2018-08-08T11:39:21.381Z,2.40
2018-08-08T11:40:21.391Z,2.70
2018-08-08T11:41:21.411Z,2.70
2018-08-08T11:42:21.406Z,2.70
2018-08-08T11:43:21.416Z,2.60
2018-08-08T11:44:21.423Z,2.90
2018-08-08T11:45:21.431Z,2.80
2018-08-08T11:46:21.444Z,2.80
2018-08-08T11:47:21.455Z,2.90
2018-08-08T11:48:21.467Z,2.60
2018-08-08T11:49:21.476Z,2.90
2018-08-08T11:50:21.482Z,3.20
2018-08-08T11:51:21.492Z,3.00
2018-08-08T11:52:21.504Z,3.20
2018-08-08T11:53:21.510Z,2.90
2018-08-08T11:54:21.522Z,3.00
2018-08-08T11:55:21.530Z,3.00
2018-08-08T11:56:21.543Z,2.90
2018-08-08T11:57:21.549Z,2.70
2018-08-08T11:58:21.558Z,2.80
2018-08-08T11:59:21.569Z,2.90
2018-08-08T12:00:21.581Z,2.90
2018-08-08T12:01:21.587Z,2.80
2018-08-08T12:02:21.596Z,3.10
2018-08-08T12:03:21.614Z,2.90
2018-08-08T12:04:21.618Z,2.90
2018-08-08T12:05:21.629Z,3.00
2018-08-08T12:06:21.635Z,3.10
2018-08-08T12:07:21.650Z,3.00
2018-08-08T12:08:21.654Z,3.00
2018-08-08T12:09:21.669Z,3.10
2018-08-08T12:10:21.674Z,2.90
2018-08-08T12:11:21.688Z,2.90
2018-08-08T12:12:21.693Z,2.80
2018-08-08T12:13:21.700Z,3.10
2018-08-08T12:14:21.713Z,3.00
2018-08-08T12:15:21.723Z,2.90
2018-08-08T12:16:21.730Z,2.90
2018-08-08T12:17:21.741Z,2.80
2018-08-08T12:18:21.753Z,2.80
2018-08-08T12:19:21.761Z,3.00
2018-08-08T12:20:21.767Z,2.70
2018-08-08T12:21:21.781Z,2.90
2018-08-08T12:22:21.792Z,2.90
2018-08-08T12:23:21.797Z,2.80
2018-08-08T12:24:21.807Z,2.80
2018-08-08T12:25:21.820Z,2.80
2018-08-08T12:26:21.830Z,3.00
2018-08-08T12:27:21.836Z,2.70
2018-08-08T12:28:21.846Z,2.90
2018-08-08T12:29:21.855Z,2.80
2018-08-08T12:30:21.870Z,2.60
2018-08-08T12:31:21.922Z,2.90
2018-08-08T12:32:21.891Z,3.10
2018-08-08T12:33:21.897Z,2.80
2018-08-08T12:34:21.959Z,2.60
2018-08-08T12:35:22.020Z,2.60
2018-08-08T12:36:21.925Z,2.80
2018-08-08T12:37:21.933Z,2.80
2018-08-08T12:38:21.944Z,2.80
2018-08-08T12:39:22.028Z,2.60
2018-08-08T12:40:21.979Z,2.80
2018-08-08T12:41:21.974Z,2.60
2018-08-08T12:42:22.016Z,2.90
2018-08-08T12:43:21.993Z,2.80
2018-08-08T12:44:22.002Z,2.70
2018-08-08T12:45:22.014Z,2.70
2018-08-08T12:46:22.022Z,2.50
2018-08-08T12:47:22.035Z,2.80
2018-08-08T12:48:22.041Z,2.70
2018-08-08T12:49:22.049Z,2.90
2018-08-08T12:50:22.060Z,2.60
2018-08-08T12:51:22.071Z,2.70
2018-08-08T12:52:22.085Z,2.50
2018-08-08T12:53:22.090Z,2.50
2018-08-08T12:54:22.102Z,2.90
2018-08-08T12:55:22.109Z,2.60
2018-08-08T12:56:22.116Z,2.70
2018-08-08T12:57:22.182Z,2.60
2018-08-08T12:58:22.148Z,2.50
2018-08-08T12:59:22.148Z,2.80
2018-08-08T13:00:22.157Z,2.70
2018-08-08T13:01:22.167Z,2.50
2018-08-08T13:02:22.177Z,2.70
2018-08-08T13:03:22.186Z,2.70
2018-08-08T13:04:22.194Z,2.60
2018-08-08T13:05:22.210Z,2.60
2018-08-08T13:06:22.269Z,2.60
2018-08-08T13:07:22.223Z,2.50
2018-08-08T13:08:22.281Z,2.50
2018-08-08T13:09:22.240Z,2.50
2018-08-08T13:10:22.253Z,2.60
2018-08-08T13:11:22.261Z,2.40
2018-08-08T13:12:22.270Z,2.60
2018-08-08T13:13:22.284Z,2.60
2018-08-08T13:14:22.529Z,2.50
2018-08-08T13:15:22.301Z,2.50
2018-08-08T13:16:22.373Z,2.50
2018-08-08T13:17:22.323Z,2.80
2018-08-08T13:18:22.330Z,2.60